sensor_id;sensor_type;location;lat;lon;timestamp;temperature;humidity
58153;DHT22;43967;51.634;5.566;2022-07-09T00:01:23;24.30;58.30
58153;DHT22;43967;51.634;5.566;2022-07-09T00:06:24;24.20;58.30
58153;DHT22;43967;51.634;5.566;2022-07-09T00:11:25;24.20;58.30
58153;DHT22;43967;51.634;5.566;2022-07-09T00:16:26;24.20;58.30
58153;DHT22;43967;51.634;5.566;2022-07-09T00:21:28;24.20;58.40
58153;DHT22;43967;51.634;5.566;2022-07-09T00:26:29;24.20;58.30
58153;DHT22;43967;51.634;5.566;2022-07-09T00:31:30;24.20;58.30
58153;DHT22;43967;51.634;5.566;2022-07-09T00:36:31;24.30;58.40
58153;DHT22;43967;51.634;5.566;2022-07-09T00:41:32;24.20;58.30
58153;DHT22;43967;51.634;5.566;2022-07-09T00:46:33;24.20;58.40
58153;DHT22;43967;51.634;5.566;2022-07-09T00:51:34;24.20;58.40
58153;DHT22;43967;51.634;5.566;2022-07-09T00:56:35;24.20;58.40
58153;DHT22;43967;51.634;5.566;2022-07-09T01:01:36;24.20;58.40
58153;DHT22;43967;51.634;5.566;2022-07-09T01:06:37;24.20;58.40
58153;DHT22;43967;51.634;5.566;2022-07-09T01:11:39;24.20;58.40
58153;DHT22;43967;51.634;5.566;2022-07-09T01:16:40;24.20;58.50
58153;DHT22;43967;51.634;5.566;2022-07-09T01:21:41;24.20;58.50
58153;DHT22;43967;51.634;5.566;2022-07-09T01:26:42;24.20;58.50
58153;DHT22;43967;51.634;5.566;2022-07-09T01:31:43;24.20;58.50
58153;DHT22;43967;51.634;5.566;2022-07-09T01:36:44;24.20;58.50
58153;DHT22;43967;51.634;5.566;2022-07-09T01:41:46;24.20;58.50
58153;DHT22;43967;51.634;5.566;2022-07-09T01:46:47;24.10;58.40
58153;DHT22;43967;51.634;5.566;2022-07-09T01:51:48;24.10;58.50
58153;DHT22;43967;51.634;5.566;2022-07-09T01:56:49;24.10;58.50
58153;DHT22;43967;51.634;5.566;2022-07-09T02:01:50;24.20;58.60
58153;DHT22;43967;51.634;5.566;2022-07-09T02:06:51;24.10;58.50
58153;DHT22;43967;51.634;5.566;2022-07-09T02:11:52;24.10;58.50
58153;DHT22;43967;51.634;5.566;2022-07-09T02:16:53;24.10;58.50
58153;DHT22;43967;51.634;5.566;2022-07-09T02:21:54;24.10;58.60
58153;DHT22;43967;51.634;5.566;2022-07-09T02:26:55;24.10;58.50
58153;DHT22;43967;51.634;5.566;2022-07-09T02:31:56;24.10;58.60
58153;DHT22;43967;51.634;5.566;2022-07-09T02:36:57;24.10;58.60
58153;DHT22;43967;51.634;5.566;2022-07-09T02:41:59;24.10;58.60
58153;DHT22;43967;51.634;5.566;2022-07-09T02:47:00;24.10;58.60
58153;DHT22;43967;51.634;5.566;2022-07-09T02:52:02;24.10;58.60
58153;DHT22;43967;51.634;5.566;2022-07-09T02:57:04;24.00;58.60
58153;DHT22;43967;51.634;5.566;2022-07-09T03:02:05;24.00;58.60
58153;DHT22;43967;51.634;5.566;2022-07-09T03:07:06;24.00;58.60
58153;DHT22;43967;51.634;5.566;2022-07-09T03:12:07;24.00;58.60
58153;DHT22;43967;51.634;5.566;2022-07-09T03:17:08;24.00;58.60
58153;DHT22;43967;51.634;5.566;2022-07-09T03:22:09;24.00;58.60
58153;DHT22;43967;51.634;5.566;2022-07-09T03:27:11;24.00;58.60
58153;DHT22;43967;51.634;5.566;2022-07-09T03:32:12;24.00;58.70
58153;DHT22;43967;51.634;5.566;2022-07-09T03:37:13;24.00;58.70
58153;DHT22;43967;51.634;5.566;2022-07-09T03:42:14;24.00;58.70
58153;DHT22;43967;51.634;5.566;2022-07-09T03:47:15;24.00;58.70
58153;DHT22;43967;51.634;5.566;2022-07-09T03:52:16;24.00;58.70
58153;DHT22;43967;51.634;5.566;2022-07-09T03:57:17;24.00;58.60
58153;DHT22;43967;51.634;5.566;2022-07-09T04:02:18;24.00;58.60
58153;DHT22;43967;51.634;5.566;2022-07-09T04:07:21;24.00;58.70
58153;DHT22;43967;51.634;5.566;2022-07-09T04:12:22;24.00;58.70
58153;DHT22;43967;51.634;5.566;2022-07-09T04:17:23;24.00;58.60
58153;DHT22;43967;51.634;5.566;2022-07-09T04:22:24;24.00;58.60
58153;DHT22;43967;51.634;5.566;2022-07-09T04:27:25;24.00;58.60
58153;DHT22;43967;51.634;5.566;2022-07-09T04:32:26;24.00;58.70
58153;DHT22;43967;51.634;5.566;2022-07-09T04:37:27;24.00;58.70
58153;DHT22;43967;51.634;5.566;2022-07-09T04:42:28;24.00;58.60
58153;DHT22;43967;51.634;5.566;2022-07-09T04:47:29;24.00;58.60
58153;DHT22;43967;51.634;5.566;2022-07-09T04:52:30;24.00;58.60
58153;DHT22;43967;51.634;5.566;2022-07-09T04:57:32;23.90;58.50
58153;DHT22;43967;51.634;5.566;2022-07-09T05:02:33;24.00;58.60
58153;DHT22;43967;51.634;5.566;2022-07-09T05:07:34;24.00;58.70
58153;DHT22;43967;51.634;5.566;2022-07-09T05:12:35;24.00;58.70
58153;DHT22;43967;51.634;5.566;2022-07-09T05:17:37;24.00;58.70
58153;DHT22;43967;51.634;5.566;2022-07-09T05:22:38;24.00;58.80
58153;DHT22;43967;51.634;5.566;2022-07-09T05:27:44;24.00;58.80
58153;DHT22;43967;51.634;5.566;2022-07-09T05:32:46;24.00;58.80
58153;DHT22;43967;51.634;5.566;2022-07-09T05:37:47;24.00;59.60
58153;DHT22;43967;51.634;5.566;2022-07-09T05:42:48;24.00;58.80
58153;DHT22;43967;51.634;5.566;2022-07-09T05:47:50;24.00;58.90
58153;DHT22;43967;51.634;5.566;2022-07-09T05:52:51;24.10;58.90
58153;DHT22;43967;51.634;5.566;2022-07-09T05:57:52;24.00;58.80
58153;DHT22;43967;51.634;5.566;2022-07-09T06:02:53;24.10;58.80
58153;DHT22;43967;51.634;5.566;2022-07-09T06:07:54;24.10;58.80
58153;DHT22;43967;51.634;5.566;2022-07-09T06:12:55;24.10;58.80
58153;DHT22;43967;51.634;5.566;2022-07-09T06:17:56;24.10;58.90
58153;DHT22;43967;51.634;5.566;2022-07-09T06:22:57;24.10;58.90
58153;DHT22;43967;51.634;5.566;2022-07-09T06:27:58;24.10;58.70
58153;DHT22;43967;51.634;5.566;2022-07-09T06:33:00;24.10;58.80
58153;DHT22;43967;51.634;5.566;2022-07-09T06:38:01;24.10;58.10
58153;DHT22;43967;51.634;5.566;2022-07-09T06:43:03;24.10;58.00
58153;DHT22;43967;51.634;5.566;2022-07-09T06:48:09;24.10;58.20
58153;DHT22;43967;51.634;5.566;2022-07-09T06:53:10;24.10;58.20
58153;DHT22;43967;51.634;5.566;2022-07-09T06:58:11;24.20;58.40
58153;DHT22;43967;51.634;5.566;2022-07-09T07:03:12;24.20;58.50
58153;DHT22;43967;51.634;5.566;2022-07-09T07:08:13;24.20;58.50
58153;DHT22;43967;51.634;5.566;2022-07-09T07:13:14;24.20;58.40
58153;DHT22;43967;51.634;5.566;2022-07-09T07:18:16;24.30;58.60
58153;DHT22;43967;51.634;5.566;2022-07-09T07:23:17;24.30;58.50
58153;DHT22;43967;51.634;5.566;2022-07-09T07:28:18;24.30;59.60
58153;DHT22;43967;51.634;5.566;2022-07-09T07:33:19;24.10;60.70
58153;DHT22;43967;51.634;5.566;2022-07-09T07:38:20;23.90;62.20
58153;DHT22;43967;51.634;5.566;2022-07-09T07:43:21;23.70;62.90
58153;DHT22;43967;51.634;5.566;2022-07-09T07:48:22;23.70;62.90
58153;DHT22;43967;51.634;5.566;2022-07-09T07:53:23;23.60;63.10
58153;DHT22;43967;51.634;5.566;2022-07-09T07:58:24;23.60;63.00
58153;DHT22;43967;51.634;5.566;2022-07-09T08:03:25;23.60;63.00
58153;DHT22;43967;51.634;5.566;2022-07-09T08:08:27;23.60;63.20
58153;DHT22;43967;51.634;5.566;2022-07-09T08:13:28;23.80;63.00
58153;DHT22;43967;51.634;5.566;2022-07-09T08:18:29;23.80;62.50
58153;DHT22;43967;51.634;5.566;2022-07-09T08:23:30;23.80;62.20
58153;DHT22;43967;51.634;5.566;2022-07-09T08:28:31;23.80;62.00
58153;DHT22;43967;51.634;5.566;2022-07-09T08:33:32;23.90;61.80
58153;DHT22;43967;51.634;5.566;2022-07-09T08:38:33;23.90;61.90
58153;DHT22;43967;51.634;5.566;2022-07-09T08:43:36;23.90;61.90
58153;DHT22;43967;51.634;5.566;2022-07-09T08:48:38;23.90;61.60
58153;DHT22;43967;51.634;5.566;2022-07-09T08:53:41;24.00;61.60
58153;DHT22;43967;51.634;5.566;2022-07-09T08:58:42;23.90;61.60
58153;DHT22;43967;51.634;5.566;2022-07-09T09:03:44;24.00;61.40
58153;DHT22;43967;51.634;5.566;2022-07-09T09:08:45;24.00;61.70
58153;DHT22;43967;51.634;5.566;2022-07-09T09:13:48;24.00;61.80
58153;DHT22;43967;51.634;5.566;2022-07-09T09:18:51;23.90;62.50
58153;DHT22;43967;51.634;5.566;2022-07-09T09:23:54;23.90;62.10
58153;DHT22;43967;51.634;5.566;2022-07-09T09:29:01;23.90;61.80
58153;DHT22;43967;51.634;5.566;2022-07-09T09:44:22;23.90;62.00
58153;DHT22;43967;51.634;5.566;2022-07-09T09:49:23;23.90;62.30
58153;DHT22;43967;51.634;5.566;2022-07-09T09:54:25;23.80;62.10
58153;DHT22;43967;51.634;5.566;2022-07-09T09:59:26;23.80;62.20
58153;DHT22;43967;51.634;5.566;2022-07-09T10:04:27;23.80;62.50
58153;DHT22;43967;51.634;5.566;2022-07-09T10:09:29;23.90;62.90
58153;DHT22;43967;51.634;5.566;2022-07-09T10:14:34;24.00;63.00
58153;DHT22;43967;51.634;5.566;2022-07-09T10:19:36;24.00;63.00
58153;DHT22;43967;51.634;5.566;2022-07-09T10:24:37;24.10;63.20
58153;DHT22;43967;51.634;5.566;2022-07-09T10:29:58;24.00;63.10
58153;DHT22;43967;51.634;5.566;2022-07-09T10:35:01;24.00;62.80
58153;DHT22;43967;51.634;5.566;2022-07-09T10:40:16;24.00;62.50
58153;DHT22;43967;51.634;5.566;2022-07-09T10:50:19;24.10;63.10
58153;DHT22;43967;51.634;5.566;2022-07-09T10:55:25;24.10;62.90
58153;DHT22;43967;51.634;5.566;2022-07-09T11:00:28;24.20;62.40
58153;DHT22;43967;51.634;5.566;2022-07-09T11:05:34;24.30;61.70
58153;DHT22;43967;51.634;5.566;2022-07-09T11:10:37;24.20;61.50
58153;DHT22;43967;51.634;5.566;2022-07-09T11:15:38;24.30;61.20
58153;DHT22;43967;51.634;5.566;2022-07-09T11:20:46;24.30;60.80
58153;DHT22;43967;51.634;5.566;2022-07-09T11:25:47;24.30;61.10
58153;DHT22;43967;51.634;5.566;2022-07-09T11:31:02;24.30;60.60
58153;DHT22;43967;51.634;5.566;2022-07-09T11:36:04;24.40;61.10
58153;DHT22;43967;51.634;5.566;2022-07-09T11:41:05;24.40;60.60
58153;DHT22;43967;51.634;5.566;2022-07-09T11:46:06;24.40;59.90
58153;DHT22;43967;51.634;5.566;2022-07-09T11:51:07;24.40;59.40
58153;DHT22;43967;51.634;5.566;2022-07-09T11:56:08;24.40;59.10
58153;DHT22;43967;51.634;5.566;2022-07-09T12:01:12;24.40;58.60
58153;DHT22;43967;51.634;5.566;2022-07-09T12:06:13;24.40;58.40
58153;DHT22;43967;51.634;5.566;2022-07-09T12:11:14;24.50;58.30
58153;DHT22;43967;51.634;5.566;2022-07-09T12:16:15;24.50;58.30
58153;DHT22;43967;51.634;5.566;2022-07-09T12:21:16;24.50;57.80
58153;DHT22;43967;51.634;5.566;2022-07-09T12:26:17;24.50;57.50
58153;DHT22;43967;51.634;5.566;2022-07-09T12:31:18;24.40;56.80
58153;DHT22;43967;51.634;5.566;2022-07-09T12:36:20;24.50;57.00
58153;DHT22;43967;51.634;5.566;2022-07-09T12:41:21;24.50;56.00
58153;DHT22;43967;51.634;5.566;2022-07-09T12:46:23;24.40;55.30
58153;DHT22;43967;51.634;5.566;2022-07-09T12:51:24;24.40;54.50
58153;DHT22;43967;51.634;5.566;2022-07-09T12:56:25;24.40;54.10
58153;DHT22;43967;51.634;5.566;2022-07-09T13:01:26;24.40;53.90
58153;DHT22;43967;51.634;5.566;2022-07-09T13:06:27;24.50;54.00
58153;DHT22;43967;51.634;5.566;2022-07-09T13:11:28;24.40;53.50
58153;DHT22;43967;51.634;5.566;2022-07-09T13:16:30;24.50;52.60
58153;DHT22;43967;51.634;5.566;2022-07-09T13:21:31;24.50;52.50
58153;DHT22;43967;51.634;5.566;2022-07-09T13:26:32;24.50;53.20
58153;DHT22;43967;51.634;5.566;2022-07-09T13:31:33;24.50;53.10
58153;DHT22;43967;51.634;5.566;2022-07-09T13:36:34;24.50;52.60
58153;DHT22;43967;51.634;5.566;2022-07-09T13:41:35;24.50;52.40
58153;DHT22;43967;51.634;5.566;2022-07-09T13:46:36;24.50;52.20
58153;DHT22;43967;51.634;5.566;2022-07-09T13:51:37;24.50;51.80
58153;DHT22;43967;51.634;5.566;2022-07-09T13:56:39;24.50;51.90
58153;DHT22;43967;51.634;5.566;2022-07-09T14:01:40;24.40;51.50
58153;DHT22;43967;51.634;5.566;2022-07-09T14:06:41;24.50;51.80
58153;DHT22;43967;51.634;5.566;2022-07-09T14:11:42;24.50;52.40
58153;DHT22;43967;51.634;5.566;2022-07-09T14:16:43;24.50;51.50
58153;DHT22;43967;51.634;5.566;2022-07-09T14:21:44;24.40;50.90
58153;DHT22;43967;51.634;5.566;2022-07-09T14:26:45;24.50;51.50
58153;DHT22;43967;51.634;5.566;2022-07-09T14:31:47;24.50;51.70
58153;DHT22;43967;51.634;5.566;2022-07-09T14:36:51;24.60;52.00
58153;DHT22;43967;51.634;5.566;2022-07-09T14:41:52;24.60;52.70
58153;DHT22;43967;51.634;5.566;2022-07-09T14:46:53;24.60;52.70
58153;DHT22;43967;51.634;5.566;2022-07-09T14:51:55;24.60;52.90
58153;DHT22;43967;51.634;5.566;2022-07-09T14:56:56;24.60;52.90
58153;DHT22;43967;51.634;5.566;2022-07-09T15:01:57;24.70;53.00
58153;DHT22;43967;51.634;5.566;2022-07-09T15:06:58;24.80;53.20
58153;DHT22;43967;51.634;5.566;2022-07-09T15:11:59;24.90;53.60
58153;DHT22;43967;51.634;5.566;2022-07-09T15:17:00;24.90;55.50
58153;DHT22;43967;51.634;5.566;2022-07-09T15:22:01;25.00;56.60
58153;DHT22;43967;51.634;5.566;2022-07-09T15:27:03;25.00;56.80
58153;DHT22;43967;51.634;5.566;2022-07-09T15:32:04;25.00;57.00
58153;DHT22;43967;51.634;5.566;2022-07-09T15:37:05;24.90;57.10
58153;DHT22;43967;51.634;5.566;2022-07-09T15:42:07;25.00;57.30
58153;DHT22;43967;51.634;5.566;2022-07-09T15:47:08;25.10;57.80
58153;DHT22;43967;51.634;5.566;2022-07-09T15:52:09;25.10;57.40
58153;DHT22;43967;51.634;5.566;2022-07-09T15:57:11;25.00;57.40
58153;DHT22;43967;51.634;5.566;2022-07-09T16:02:12;25.10;57.40
58153;DHT22;43967;51.634;5.566;2022-07-09T16:07:13;25.10;57.30
58153;DHT22;43967;51.634;5.566;2022-07-09T16:12:14;25.10;56.90
58153;DHT22;43967;51.634;5.566;2022-07-09T16:17:15;25.10;56.80
58153;DHT22;43967;51.634;5.566;2022-07-09T16:22:16;25.20;57.00
58153;DHT22;43967;51.634;5.566;2022-07-09T16:27:17;25.20;56.80
58153;DHT22;43967;51.634;5.566;2022-07-09T16:32:19;25.10;56.60
58153;DHT22;43967;51.634;5.566;2022-07-09T16:37:20;25.00;56.50
58153;DHT22;43967;51.634;5.566;2022-07-09T16:42:21;25.00;56.70
58153;DHT22;43967;51.634;5.566;2022-07-09T16:47:22;25.10;56.80
58153;DHT22;43967;51.634;5.566;2022-07-09T16:52:23;25.10;56.80
58153;DHT22;43967;51.634;5.566;2022-07-09T16:57:24;25.10;56.80
58153;DHT22;43967;51.634;5.566;2022-07-09T17:02:25;25.20;56.80
58153;DHT22;43967;51.634;5.566;2022-07-09T17:07:26;25.20;57.00
58153;DHT22;43967;51.634;5.566;2022-07-09T17:12:28;25.10;56.80
58153;DHT22;43967;51.634;5.566;2022-07-09T17:17:29;25.10;56.80
58153;DHT22;43967;51.634;5.566;2022-07-09T17:22:30;25.20;56.90
58153;DHT22;43967;51.634;5.566;2022-07-09T17:27:31;25.10;56.80
58153;DHT22;43967;51.634;5.566;2022-07-09T17:32:32;25.10;56.70
58153;DHT22;43967;51.634;5.566;2022-07-09T17:37:34;25.10;56.60
58153;DHT22;43967;51.634;5.566;2022-07-09T17:42:35;25.20;56.80
58153;DHT22;43967;51.634;5.566;2022-07-09T17:47:36;25.10;56.70
58153;DHT22;43967;51.634;5.566;2022-07-09T17:52:38;25.10;56.90
58153;DHT22;43967;51.634;5.566;2022-07-09T17:57:39;25.10;56.90
58153;DHT22;43967;51.634;5.566;2022-07-09T18:02:40;25.00;56.80
58153;DHT22;43967;51.634;5.566;2022-07-09T18:07:41;25.00;56.80
58153;DHT22;43967;51.634;5.566;2022-07-09T18:12:43;25.10;56.90
58153;DHT22;43967;51.634;5.566;2022-07-09T18:17:44;25.10;57.00
58153;DHT22;43967;51.634;5.566;2022-07-09T18:22:45;25.00;56.80
58153;DHT22;43967;51.634;5.566;2022-07-09T18:27:46;25.00;56.90
58153;DHT22;43967;51.634;5.566;2022-07-09T18:32:47;24.90;56.80
58153;DHT22;43967;51.634;5.566;2022-07-09T18:37:48;25.00;56.80
58153;DHT22;43967;51.634;5.566;2022-07-09T18:42:50;25.10;56.80
58153;DHT22;43967;51.634;5.566;2022-07-09T18:47:51;25.00;56.90
58153;DHT22;43967;51.634;5.566;2022-07-09T18:52:52;24.90;56.80
58153;DHT22;43967;51.634;5.566;2022-07-09T18:57:53;24.90;56.70
58153;DHT22;43967;51.634;5.566;2022-07-09T19:02:54;24.90;56.70
58153;DHT22;43967;51.634;5.566;2022-07-09T19:07:55;25.00;56.80
58153;DHT22;43967;51.634;5.566;2022-07-09T19:12:56;24.90;56.60
58153;DHT22;43967;51.634;5.566;2022-07-09T19:17:59;24.90;56.80
58153;DHT22;43967;51.634;5.566;2022-07-09T19:23:00;24.80;56.70
58153;DHT22;43967;51.634;5.566;2022-07-09T19:28:01;24.80;56.80
58153;DHT22;43967;51.634;5.566;2022-07-09T19:33:02;24.80;56.80
58153;DHT22;43967;51.634;5.566;2022-07-09T19:38:03;24.90;56.90
58153;DHT22;43967;51.634;5.566;2022-07-09T19:43:04;24.80;56.50
58153;DHT22;43967;51.634;5.566;2022-07-09T19:48:05;24.80;56.60
58153;DHT22;43967;51.634;5.566;2022-07-09T19:53:06;24.80;56.60
58153;DHT22;43967;51.634;5.566;2022-07-09T19:58:08;24.80;56.40
58153;DHT22;43967;51.634;5.566;2022-07-09T20:03:09;24.80;56.70
58153;DHT22;43967;51.634;5.566;2022-07-09T20:08:10;24.80;56.70
58153;DHT22;43967;51.634;5.566;2022-07-09T20:13:11;24.80;56.50
58153;DHT22;43967;51.634;5.566;2022-07-09T20:18:12;24.70;56.40
58153;DHT22;43967;51.634;5.566;2022-07-09T20:23:14;24.80;56.40
58153;DHT22;43967;51.634;5.566;2022-07-09T20:28:15;24.80;56.30
58153;DHT22;43967;51.634;5.566;2022-07-09T20:33:16;24.80;56.40
58153;DHT22;43967;51.634;5.566;2022-07-09T20:38:17;24.80;56.00
58153;DHT22;43967;51.634;5.566;2022-07-09T20:43:18;24.80;56.00
58153;DHT22;43967;51.634;5.566;2022-07-09T20:48:19;24.70;55.10
58153;DHT22;43967;51.634;5.566;2022-07-09T20:53:20;24.60;54.90
58153;DHT22;43967;51.634;5.566;2022-07-09T20:58:21;24.60;54.90
58153;DHT22;43967;51.634;5.566;2022-07-09T21:03:22;24.60;54.90
58153;DHT22;43967;51.634;5.566;2022-07-09T21:08:23;24.60;54.90
58153;DHT22;43967;51.634;5.566;2022-07-09T21:13:25;24.60;54.90
58153;DHT22;43967;51.634;5.566;2022-07-09T21:18:26;24.60;54.90
58153;DHT22;43967;51.634;5.566;2022-07-09T21:23:27;24.60;54.90
58153;DHT22;43967;51.634;5.566;2022-07-09T21:28:28;24.60;54.90
58153;DHT22;43967;51.634;5.566;2022-07-09T21:33:29;24.50;54.80
58153;DHT22;43967;51.634;5.566;2022-07-09T21:38:30;24.60;54.90
58153;DHT22;43967;51.634;5.566;2022-07-09T21:43:32;24.60;54.90
58153;DHT22;43967;51.634;5.566;2022-07-09T21:48:33;24.50;54.80
58153;DHT22;43967;51.634;5.566;2022-07-09T21:53:34;24.50;54.80
58153;DHT22;43967;51.634;5.566;2022-07-09T21:58:35;24.50;54.90
58153;DHT22;43967;51.634;5.566;2022-07-09T22:03:36;24.50;54.90
58153;DHT22;43967;51.634;5.566;2022-07-09T22:08:37;24.50;54.80
58153;DHT22;43967;51.634;5.566;2022-07-09T22:13:38;24.50;54.80
58153;DHT22;43967;51.634;5.566;2022-07-09T22:18:39;24.40;54.80
58153;DHT22;43967;51.634;5.566;2022-07-09T22:23:40;24.40;54.80
58153;DHT22;43967;51.634;5.566;2022-07-09T22:28:41;24.40;54.80
58153;DHT22;43967;51.634;5.566;2022-07-09T22:33:42;24.40;54.80
58153;DHT22;43967;51.634;5.566;2022-07-09T22:38:43;24.40;54.80
58153;DHT22;43967;51.634;5.566;2022-07-09T22:43:44;24.40;54.80
58153;DHT22;43967;51.634;5.566;2022-07-09T22:48:45;24.40;54.80
58153;DHT22;43967;51.634;5.566;2022-07-09T22:53:47;24.40;54.80
58153;DHT22;43967;51.634;5.566;2022-07-09T22:58:48;24.40;54.90
58153;DHT22;43967;51.634;5.566;2022-07-09T23:03:49;24.40;54.90
58153;DHT22;43967;51.634;5.566;2022-07-09T23:08:50;24.40;54.90
58153;DHT22;43967;51.634;5.566;2022-07-09T23:13:51;24.40;55.00
58153;DHT22;43967;51.634;5.566;2022-07-09T23:18:52;24.40;55.00
58153;DHT22;43967;51.634;5.566;2022-07-09T23:23:54;24.30;54.90
58153;DHT22;43967;51.634;5.566;2022-07-09T23:28:56;24.40;55.00
58153;DHT22;43967;51.634;5.566;2022-07-09T23:33:57;24.30;54.90
58153;DHT22;43967;51.634;5.566;2022-07-09T23:38:58;24.30;55.00
58153;DHT22;43967;51.634;5.566;2022-07-09T23:43:59;24.30;54.90
58153;DHT22;43967;51.634;5.566;2022-07-09T23:49:00;24.30;55.00
58153;DHT22;43967;51.634;5.566;2022-07-09T23:54:01;24.30;55.00
58153;DHT22;43967;51.634;5.566;2022-07-09T23:59:02;24.30;55.00
